Terminal Aerodrome Forecast
Issued by NWS

Home | Current Version | Previous Version | Text Only | Print | Product List | Glossary On
Versions: 1 2 3 4 5 6 7 8 9 10 11 12
000
FTUS45 KFGZ 141100
TAFPGA
TAF
KPGA 141122Z 1412/1512 22010G20KT P6SM FEW110 BKN200
     FM141300 VRB06KT P6SM FEW110 SCT200
     FM141900 VRB06KT P6SM SCT110 BKN250 PROB30 1421/1503 VRB15G25KT
      -TSRA BKN110CB
     FM150300 VRB06KT P6SM FEW110 SCT250=

USA.gov is the U.S. government's official web portal to all federal, state and local government web resources and services.